sensor_id;sensor_type;location;lat;lon;timestamp;temperature;humidity
35804;DHT22;21924;51.934;7.414;2024-03-02T00:03:45;6.00;99.90
35804;DHT22;21924;51.934;7.414;2024-03-02T00:06:29;6.00;99.90
35804;DHT22;21924;51.934;7.414;2024-03-02T00:09:13;6.10;99.90
35804;DHT22;21924;51.934;7.414;2024-03-02T00:11:59;6.00;99.90
35804;DHT22;21924;51.934;7.414;2024-03-02T00:14:44;5.90;99.90
35804;DHT22;21924;51.934;7.414;2024-03-02T00:17:28;5.90;99.90
35804;DHT22;21924;51.934;7.414;2024-03-02T00:20:13;5.90;99.90
35804;DHT22;21924;51.934;7.414;2024-03-02T00:23:04;6.00;99.90
35804;DHT22;21924;51.934;7.414;2024-03-02T00:25:50;6.00;99.90
35804;DHT22;21924;51.934;7.414;2024-03-02T00:28:37;6.00;99.90
35804;DHT22;21924;51.934;7.414;2024-03-02T00:31:23;6.00;99.90
35804;DHT22;21924;51.934;7.414;2024-03-02T00:34:07;5.90;99.90
35804;DHT22;21924;51.934;7.414;2024-03-02T00:36:51;6.00;99.90
35804;DHT22;21924;51.934;7.414;2024-03-02T00:39:36;6.00;99.90
35804;DHT22;21924;51.934;7.414;2024-03-02T00:42:20;6.00;99.90
35804;DHT22;21924;51.934;7.414;2024-03-02T00:45:07;6.00;99.90
35804;DHT22;21924;51.934;7.414;2024-03-02T00:47:51;5.90;99.90
35804;DHT22;21924;51.934;7.414;2024-03-02T00:50:36;6.00;99.90
35804;DHT22;21924;51.934;7.414;2024-03-02T00:53:21;6.00;99.90
35804;DHT22;21924;51.934;7.414;2024-03-02T00:56:08;6.10;99.90
35804;DHT22;21924;51.934;7.414;2024-03-02T00:58:53;6.10;99.90
35804;DHT22;21924;51.934;7.414;2024-03-02T01:01:37;6.10;99.90
35804;DHT22;21924;51.934;7.414;2024-03-02T01:04:21;6.10;99.90
35804;DHT22;21924;51.934;7.414;2024-03-02T01:07:05;6.10;99.90
35804;DHT22;21924;51.934;7.414;2024-03-02T01:09:50;6.10;99.90
35804;DHT22;21924;51.934;7.414;2024-03-02T01:12:34;6.10;99.90
35804;DHT22;21924;51.934;7.414;2024-03-02T01:15:18;6.10;99.90
35804;DHT22;21924;51.934;7.414;2024-03-02T01:18:02;6.00;99.90
35804;DHT22;21924;51.934;7.414;2024-03-02T01:20:46;6.00;99.90
35804;DHT22;21924;51.934;7.414;2024-03-02T01:23:30;6.10;99.90
35804;DHT22;21924;51.934;7.414;2024-03-02T01:26:15;6.10;99.90
35804;DHT22;21924;51.934;7.414;2024-03-02T01:28:59;6.10;99.90
35804;DHT22;21924;51.934;7.414;2024-03-02T01:31:43;6.00;99.90
35804;DHT22;21924;51.934;7.414;2024-03-02T01:34:27;6.00;99.90
35804;DHT22;21924;51.934;7.414;2024-03-02T01:37:12;6.00;99.90
35804;DHT22;21924;51.934;7.414;2024-03-02T01:39:56;6.10;99.90
35804;DHT22;21924;51.934;7.414;2024-03-02T01:42:47;6.10;99.90
35804;DHT22;21924;51.934;7.414;2024-03-02T01:45:32;6.00;99.90
35804;DHT22;21924;51.934;7.414;2024-03-02T01:48:16;5.90;99.90
35804;DHT22;21924;51.934;7.414;2024-03-02T01:51:00;5.90;99.90
35804;DHT22;21924;51.934;7.414;2024-03-02T01:53:45;6.00;99.90
35804;DHT22;21924;51.934;7.414;2024-03-02T01:56:29;5.90;99.90
35804;DHT22;21924;51.934;7.414;2024-03-02T01:59:13;6.00;99.90
35804;DHT22;21924;51.934;7.414;2024-03-02T02:01:57;6.00;99.90
35804;DHT22;21924;51.934;7.414;2024-03-02T02:04:41;6.00;99.90
35804;DHT22;21924;51.934;7.414;2024-03-02T02:07:25;6.00;99.90
35804;DHT22;21924;51.934;7.414;2024-03-02T02:10:11;6.00;99.90
35804;DHT22;21924;51.934;7.414;2024-03-02T02:12:55;5.90;99.90
35804;DHT22;21924;51.934;7.414;2024-03-02T02:15:39;5.90;99.90
35804;DHT22;21924;51.934;7.414;2024-03-02T02:18:24;5.90;99.90
35804;DHT22;21924;51.934;7.414;2024-03-02T02:21:11;5.80;99.90
35804;DHT22;21924;51.934;7.414;2024-03-02T02:23:55;5.90;99.90
35804;DHT22;21924;51.934;7.414;2024-03-02T02:26:39;5.80;99.90
35804;DHT22;21924;51.934;7.414;2024-03-02T02:29:23;5.80;99.90
35804;DHT22;21924;51.934;7.414;2024-03-02T02:32:08;5.80;99.90
35804;DHT22;21924;51.934;7.414;2024-03-02T02:34:52;5.80;99.90
35804;DHT22;21924;51.934;7.414;2024-03-02T02:37:36;5.90;99.90
35804;DHT22;21924;51.934;7.414;2024-03-02T02:40:20;5.80;99.90
35804;DHT22;21924;51.934;7.414;2024-03-02T02:43:05;5.90;99.90
35804;DHT22;21924;51.934;7.414;2024-03-02T02:45:51;5.80;99.90
35804;DHT22;21924;51.934;7.414;2024-03-02T02:48:36;5.80;99.90
35804;DHT22;21924;51.934;7.414;2024-03-02T02:51:20;5.90;99.90
35804;DHT22;21924;51.934;7.414;2024-03-02T02:54:06;5.80;99.90
35804;DHT22;21924;51.934;7.414;2024-03-02T02:56:51;5.80;99.90
35804;DHT22;21924;51.934;7.414;2024-03-02T02:59:35;5.80;99.90
35804;DHT22;21924;51.934;7.414;2024-03-02T03:02:19;5.80;99.90
35804;DHT22;21924;51.934;7.414;2024-03-02T03:05:04;5.80;99.90
35804;DHT22;21924;51.934;7.414;2024-03-02T03:07:50;5.70;99.90
35804;DHT22;21924;51.934;7.414;2024-03-02T03:10:34;5.90;99.90
35804;DHT22;21924;51.934;7.414;2024-03-02T03:13:18;5.90;99.90
35804;DHT22;21924;51.934;7.414;2024-03-02T03:16:02;5.90;99.90
35804;DHT22;21924;51.934;7.414;2024-03-02T03:18:47;6.00;99.90
35804;DHT22;21924;51.934;7.414;2024-03-02T03:21:30;5.90;99.90
35804;DHT22;21924;51.934;7.414;2024-03-02T03:24:15;6.00;99.90
35804;DHT22;21924;51.934;7.414;2024-03-02T03:26:59;5.90;99.90
35804;DHT22;21924;51.934;7.414;2024-03-02T03:29:43;5.90;99.90
35804;DHT22;21924;51.934;7.414;2024-03-02T03:32:27;5.90;99.90
35804;DHT22;21924;51.934;7.414;2024-03-02T03:35:11;5.90;99.90
35804;DHT22;21924;51.934;7.414;2024-03-02T03:37:56;5.90;99.90
35804;DHT22;21924;51.934;7.414;2024-03-02T03:40:40;5.90;99.90
35804;DHT22;21924;51.934;7.414;2024-03-02T03:43:25;5.90;99.90
35804;DHT22;21924;51.934;7.414;2024-03-02T03:46:10;5.90;99.90
35804;DHT22;21924;51.934;7.414;2024-03-02T03:48:54;5.90;99.90
35804;DHT22;21924;51.934;7.414;2024-03-02T03:51:39;5.90;99.90
35804;DHT22;21924;51.934;7.414;2024-03-02T03:54:23;5.90;99.90
35804;DHT22;21924;51.934;7.414;2024-03-02T03:57:08;5.90;99.90
35804;DHT22;21924;51.934;7.414;2024-03-02T03:59:52;5.90;99.90
35804;DHT22;21924;51.934;7.414;2024-03-02T04:02:36;5.90;99.90
35804;DHT22;21924;51.934;7.414;2024-03-02T04:05:20;5.90;99.90
35804;DHT22;21924;51.934;7.414;2024-03-02T04:08:05;6.00;99.90
35804;DHT22;21924;51.934;7.414;2024-03-02T04:10:49;5.90;99.90
35804;DHT22;21924;51.934;7.414;2024-03-02T04:13:33;6.00;99.90
35804;DHT22;21924;51.934;7.414;2024-03-02T04:16:17;6.00;99.90
35804;DHT22;21924;51.934;7.414;2024-03-02T04:19:02;6.00;99.90
35804;DHT22;21924;51.934;7.414;2024-03-02T04:21:47;6.00;99.90
35804;DHT22;21924;51.934;7.414;2024-03-02T04:24:31;6.00;99.90
35804;DHT22;21924;51.934;7.414;2024-03-02T04:27:15;5.90;99.90
35804;DHT22;21924;51.934;7.414;2024-03-02T04:29:59;5.80;99.90
35804;DHT22;21924;51.934;7.414;2024-03-02T04:32:44;5.70;99.90
35804;DHT22;21924;51.934;7.414;2024-03-02T04:35:30;5.60;99.90
35804;DHT22;21924;51.934;7.414;2024-03-02T04:38:15;5.60;99.90
35804;DHT22;21924;51.934;7.414;2024-03-02T04:40:59;5.60;99.90
35804;DHT22;21924;51.934;7.414;2024-03-02T04:43:43;5.50;99.90
35804;DHT22;21924;51.934;7.414;2024-03-02T04:46:27;5.50;99.90
35804;DHT22;21924;51.934;7.414;2024-03-02T04:49:12;5.40;99.90
35804;DHT22;21924;51.934;7.414;2024-03-02T04:51:56;5.40;99.90
35804;DHT22;21924;51.934;7.414;2024-03-02T04:54:40;5.30;99.90
35804;DHT22;21924;51.934;7.414;2024-03-02T04:57:44;5.30;99.90
35804;DHT22;21924;51.934;7.414;2024-03-02T05:00:28;5.30;99.90
35804;DHT22;21924;51.934;7.414;2024-03-02T05:03:12;5.40;99.90
35804;DHT22;21924;51.934;7.414;2024-03-02T05:05:57;5.30;99.90
35804;DHT22;21924;51.934;7.414;2024-03-02T05:08:42;5.30;99.90
35804;DHT22;21924;51.934;7.414;2024-03-02T05:11:26;5.30;99.90
35804;DHT22;21924;51.934;7.414;2024-03-02T05:14:40;5.40;99.90
35804;DHT22;21924;51.934;7.414;2024-03-02T05:17:24;5.30;99.90
35804;DHT22;21924;51.934;7.414;2024-03-02T05:20:09;5.30;99.90
35804;DHT22;21924;51.934;7.414;2024-03-02T05:22:53;5.30;99.90
35804;DHT22;21924;51.934;7.414;2024-03-02T05:25:37;5.20;99.90
35804;DHT22;21924;51.934;7.414;2024-03-02T05:28:21;5.20;99.90
35804;DHT22;21924;51.934;7.414;2024-03-02T05:31:05;5.20;99.90
35804;DHT22;21924;51.934;7.414;2024-03-02T05:33:50;5.20;99.90
35804;DHT22;21924;51.934;7.414;2024-03-02T05:36:36;5.20;99.90
35804;DHT22;21924;51.934;7.414;2024-03-02T05:39:23;5.20;99.90
35804;DHT22;21924;51.934;7.414;2024-03-02T05:42:07;5.20;99.90
35804;DHT22;21924;51.934;7.414;2024-03-02T05:44:51;5.20;99.90
35804;DHT22;21924;51.934;7.414;2024-03-02T05:47:35;5.20;99.90
35804;DHT22;21924;51.934;7.414;2024-03-02T05:50:19;5.20;99.90
35804;DHT22;21924;51.934;7.414;2024-03-02T05:53:03;5.30;99.90
35804;DHT22;21924;51.934;7.414;2024-03-02T05:55:47;5.10;99.90
35804;DHT22;21924;51.934;7.414;2024-03-02T05:58:37;5.10;99.90
35804;DHT22;21924;51.934;7.414;2024-03-02T06:01:37;5.00;99.90
35804;DHT22;21924;51.934;7.414;2024-03-02T06:04:21;5.00;99.90
35804;DHT22;21924;51.934;7.414;2024-03-02T06:07:05;4.90;99.90
35804;DHT22;21924;51.934;7.414;2024-03-02T06:09:49;4.90;99.90
35804;DHT22;21924;51.934;7.414;2024-03-02T06:12:36;4.80;99.90
35804;DHT22;21924;51.934;7.414;2024-03-02T06:15:20;4.80;99.90
35804;DHT22;21924;51.934;7.414;2024-03-02T06:18:04;4.80;99.90
35804;DHT22;21924;51.934;7.414;2024-03-02T06:20:50;4.80;99.90
35804;DHT22;21924;51.934;7.414;2024-03-02T06:23:34;4.80;99.90
35804;DHT22;21924;51.934;7.414;2024-03-02T06:26:19;4.80;99.90
35804;DHT22;21924;51.934;7.414;2024-03-02T06:29:03;4.70;99.90
35804;DHT22;21924;51.934;7.414;2024-03-02T06:31:47;4.80;99.90
35804;DHT22;21924;51.934;7.414;2024-03-02T06:34:31;4.80;99.90
35804;DHT22;21924;51.934;7.414;2024-03-02T06:37:15;5.00;99.90
35804;DHT22;21924;51.934;7.414;2024-03-02T06:40:00;4.90;99.90
35804;DHT22;21924;51.934;7.414;2024-03-02T06:42:44;4.80;99.90
35804;DHT22;21924;51.934;7.414;2024-03-02T06:45:28;4.80;99.90
35804;DHT22;21924;51.934;7.414;2024-03-02T06:48:14;4.90;99.90
35804;DHT22;21924;51.934;7.414;2024-03-02T06:51:02;4.90;99.90
35804;DHT22;21924;51.934;7.414;2024-03-02T06:53:46;4.90;99.90
35804;DHT22;21924;51.934;7.414;2024-03-02T06:56:30;4.90;99.90
35804;DHT22;21924;51.934;7.414;2024-03-02T06:59:16;5.00;99.90
35804;DHT22;21924;51.934;7.414;2024-03-02T07:02:01;5.10;99.90
35804;DHT22;21924;51.934;7.414;2024-03-02T07:04:45;5.30;99.90
35804;DHT22;21924;51.934;7.414;2024-03-02T07:07:29;5.40;99.90
35804;DHT22;21924;51.934;7.414;2024-03-02T07:10:13;5.40;99.90
35804;DHT22;21924;51.934;7.414;2024-03-02T07:12:57;5.70;99.90
35804;DHT22;21924;51.934;7.414;2024-03-02T07:15:42;5.70;99.90
35804;DHT22;21924;51.934;7.414;2024-03-02T07:18:44;5.70;99.90
35804;DHT22;21924;51.934;7.414;2024-03-02T07:21:34;5.70;99.90
35804;DHT22;21924;51.934;7.414;2024-03-02T07:24:19;5.80;99.90
35804;DHT22;21924;51.934;7.414;2024-03-02T07:27:03;5.90;99.90
35804;DHT22;21924;51.934;7.414;2024-03-02T07:29:47;6.00;99.90
35804;DHT22;21924;51.934;7.414;2024-03-02T07:32:31;6.10;99.90
35804;DHT22;21924;51.934;7.414;2024-03-02T07:35:15;6.10;99.90
35804;DHT22;21924;51.934;7.414;2024-03-02T07:37:59;6.20;99.90
35804;DHT22;21924;51.934;7.414;2024-03-02T07:40:43;6.30;99.90
35804;DHT22;21924;51.934;7.414;2024-03-02T07:43:27;6.30;99.90
35804;DHT22;21924;51.934;7.414;2024-03-02T07:46:13;6.40;99.90
35804;DHT22;21924;51.934;7.414;2024-03-02T07:48:59;6.80;99.90
35804;DHT22;21924;51.934;7.414;2024-03-02T07:51:43;6.80;99.90
35804;DHT22;21924;51.934;7.414;2024-03-02T07:54:27;6.90;99.90
35804;DHT22;21924;51.934;7.414;2024-03-02T07:57:11;7.00;99.90
35804;DHT22;21924;51.934;7.414;2024-03-02T07:59:55;7.10;99.90
35804;DHT22;21924;51.934;7.414;2024-03-02T08:02:39;7.10;99.90
35804;DHT22;21924;51.934;7.414;2024-03-02T08:05:24;7.20;99.90
35804;DHT22;21924;51.934;7.414;2024-03-02T08:08:08;7.20;99.90
35804;DHT22;21924;51.934;7.414;2024-03-02T08:10:53;7.50;99.90
35804;DHT22;21924;51.934;7.414;2024-03-02T08:13:37;7.50;99.90
35804;DHT22;21924;51.934;7.414;2024-03-02T08:16:25;7.60;99.90
35804;DHT22;21924;51.934;7.414;2024-03-02T08:19:09;7.80;99.90
35804;DHT22;21924;51.934;7.414;2024-03-02T08:21:54;7.90;99.90
35804;DHT22;21924;51.934;7.414;2024-03-02T08:24:43;8.10;99.90
35804;DHT22;21924;51.934;7.414;2024-03-02T08:27:27;8.20;99.90
35804;DHT22;21924;51.934;7.414;2024-03-02T08:30:12;8.10;99.90
35804;DHT22;21924;51.934;7.414;2024-03-02T08:32:57;8.20;99.90
35804;DHT22;21924;51.934;7.414;2024-03-02T08:35:43;8.10;99.90
35804;DHT22;21924;51.934;7.414;2024-03-02T08:38:27;8.20;99.90
35804;DHT22;21924;51.934;7.414;2024-03-02T08:41:11;8.40;99.90
35804;DHT22;21924;51.934;7.414;2024-03-02T08:43:58;8.40;99.90
35804;DHT22;21924;51.934;7.414;2024-03-02T08:46:43;8.50;99.90
35804;DHT22;21924;51.934;7.414;2024-03-02T08:49:28;8.60;99.90
35804;DHT22;21924;51.934;7.414;2024-03-02T08:52:17;8.80;99.90
35804;DHT22;21924;51.934;7.414;2024-03-02T08:55:02;8.90;99.90
35804;DHT22;21924;51.934;7.414;2024-03-02T08:57:46;8.80;99.90
35804;DHT22;21924;51.934;7.414;2024-03-02T09:00:30;8.90;99.90
35804;DHT22;21924;51.934;7.414;2024-03-02T09:03:14;9.10;99.90
35804;DHT22;21924;51.934;7.414;2024-03-02T09:06:02;9.10;99.90
35804;DHT22;21924;51.934;7.414;2024-03-02T09:08:48;9.20;99.90
35804;DHT22;21924;51.934;7.414;2024-03-02T09:11:36;9.30;99.90
35804;DHT22;21924;51.934;7.414;2024-03-02T09:14:20;9.30;99.90
35804;DHT22;21924;51.934;7.414;2024-03-02T09:17:04;9.50;99.90
35804;DHT22;21924;51.934;7.414;2024-03-02T09:19:48;9.40;99.90
35804;DHT22;21924;51.934;7.414;2024-03-02T09:22:32;9.50;99.90
35804;DHT22;21924;51.934;7.414;2024-03-02T09:25:16;9.60;99.90
35804;DHT22;21924;51.934;7.414;2024-03-02T09:28:01;9.50;99.90
35804;DHT22;21924;51.934;7.414;2024-03-02T09:30:46;9.60;99.90
35804;DHT22;21924;51.934;7.414;2024-03-02T09:33:31;9.60;99.90
35804;DHT22;21924;51.934;7.414;2024-03-02T09:36:18;9.90;99.90
35804;DHT22;21924;51.934;7.414;2024-03-02T09:39:03;10.00;99.90
35804;DHT22;21924;51.934;7.414;2024-03-02T09:41:47;10.00;99.90
35804;DHT22;21924;51.934;7.414;2024-03-02T09:44:32;10.10;99.90
35804;DHT22;21924;51.934;7.414;2024-03-02T09:47:17;10.20;99.90
35804;DHT22;21924;51.934;7.414;2024-03-02T09:50:01;10.30;99.90
35804;DHT22;21924;51.934;7.414;2024-03-02T09:52:48;10.40;99.90
35804;DHT22;21924;51.934;7.414;2024-03-02T09:55:33;10.50;99.90
35804;DHT22;21924;51.934;7.414;2024-03-02T09:58:23;10.60;99.90
35804;DHT22;21924;51.934;7.414;2024-03-02T10:01:11;10.70;99.90
35804;DHT22;21924;51.934;7.414;2024-03-02T10:03:55;10.70;99.90
35804;DHT22;21924;51.934;7.414;2024-03-02T10:06:41;10.80;99.90
35804;DHT22;21924;51.934;7.414;2024-03-02T10:09:28;10.80;99.90
35804;DHT22;21924;51.934;7.414;2024-03-02T10:12:16;10.90;99.90
35804;DHT22;21924;51.934;7.414;2024-03-02T10:15:03;10.90;99.90
35804;DHT22;21924;51.934;7.414;2024-03-02T10:17:49;11.00;99.90
35804;DHT22;21924;51.934;7.414;2024-03-02T10:20:33;11.20;99.90
35804;DHT22;21924;51.934;7.414;2024-03-02T10:23:17;11.60;99.90
35804;DHT22;21924;51.934;7.414;2024-03-02T10:26:16;11.50;99.90
35804;DHT22;21924;51.934;7.414;2024-03-02T10:29:00;11.60;99.90
35804;DHT22;21924;51.934;7.414;2024-03-02T10:31:55;11.70;99.90
35804;DHT22;21924;51.934;7.414;2024-03-02T10:34:40;11.80;99.90
35804;DHT22;21924;51.934;7.414;2024-03-02T10:37:24;11.70;99.90
35804;DHT22;21924;51.934;7.414;2024-03-02T10:40:10;11.80;99.90
35804;DHT22;21924;51.934;7.414;2024-03-02T10:42:54;11.90;99.90
35804;DHT22;21924;51.934;7.414;2024-03-02T10:45:39;12.00;99.90
35804;DHT22;21924;51.934;7.414;2024-03-02T10:48:26;11.90;99.90
35804;DHT22;21924;51.934;7.414;2024-03-02T10:51:16;11.90;99.90
35804;DHT22;21924;51.934;7.414;2024-03-02T10:54:04;12.00;99.90
35804;DHT22;21924;51.934;7.414;2024-03-02T10:56:55;12.10;99.90
35804;DHT22;21924;51.934;7.414;2024-03-02T10:59:53;12.20;99.90
35804;DHT22;21924;51.934;7.414;2024-03-02T11:02:57;12.30;99.90
35804;DHT22;21924;51.934;7.414;2024-03-02T11:05:44;12.40;99.90
35804;DHT22;21924;51.934;7.414;2024-03-02T11:08:31;12.60;99.90
35804;DHT22;21924;51.934;7.414;2024-03-02T11:11:18;12.60;99.90
35804;DHT22;21924;51.934;7.414;2024-03-02T11:14:04;12.50;99.90
35804;DHT22;21924;51.934;7.414;2024-03-02T11:16:52;12.60;99.90
35804;DHT22;21924;51.934;7.414;2024-03-02T11:19:38;12.50;99.90
35804;DHT22;21924;51.934;7.414;2024-03-02T11:56:48;14.00;99.90
35804;DHT22;21924;51.934;7.414;2024-03-02T11:59:32;14.20;99.90
35804;DHT22;21924;51.934;7.414;2024-03-02T12:02:17;14.10;99.90
35804;DHT22;21924;51.934;7.414;2024-03-02T12:05:02;13.80;99.90
35804;DHT22;21924;51.934;7.414;2024-03-02T12:07:46;13.80;99.90
35804;DHT22;21924;51.934;7.414;2024-03-02T12:10:31;14.00;99.90
35804;DHT22;21924;51.934;7.414;2024-03-02T12:13:16;14.20;99.90
35804;DHT22;21924;51.934;7.414;2024-03-02T12:16:00;14.40;99.90
35804;DHT22;21924;51.934;7.414;2024-03-02T12:18:44;14.50;99.90
35804;DHT22;21924;51.934;7.414;2024-03-02T12:21:27;14.50;99.90
35804;DHT22;21924;51.934;7.414;2024-03-02T12:24:12;14.50;99.90
35804;DHT22;21924;51.934;7.414;2024-03-02T12:26:56;14.50;99.90
35804;DHT22;21924;51.934;7.414;2024-03-02T12:29:41;14.50;99.90
35804;DHT22;21924;51.934;7.414;2024-03-02T12:32:25;14.70;99.90
35804;DHT22;21924;51.934;7.414;2024-03-02T12:35:10;14.70;99.90
35804;DHT22;21924;51.934;7.414;2024-03-02T12:37:58;14.90;99.90
35804;DHT22;21924;51.934;7.414;2024-03-02T12:40:42;15.00;99.90
35804;DHT22;21924;51.934;7.414;2024-03-02T12:43:29;15.00;99.90
35804;DHT22;21924;51.934;7.414;2024-03-02T12:46:14;15.10;99.90
35804;DHT22;21924;51.934;7.414;2024-03-02T12:49:16;15.10;99.90
35804;DHT22;21924;51.934;7.414;2024-03-02T12:52:00;15.00;99.90
35804;DHT22;21924;51.934;7.414;2024-03-02T12:54:44;15.10;99.90
35804;DHT22;21924;51.934;7.414;2024-03-02T12:57:28;15.00;99.90
35804;DHT22;21924;51.934;7.414;2024-03-02T13:00:13;14.90;99.90
35804;DHT22;21924;51.934;7.414;2024-03-02T13:02:57;15.00;99.90
35804;DHT22;21924;51.934;7.414;2024-03-02T13:05:49;14.90;99.90
35804;DHT22;21924;51.934;7.414;2024-03-02T13:08:34;14.90;99.90
35804;DHT22;21924;51.934;7.414;2024-03-02T13:11:18;14.90;99.90
35804;DHT22;21924;51.934;7.414;2024-03-02T13:14:02;15.10;99.90
35804;DHT22;21924;51.934;7.414;2024-03-02T13:16:46;15.20;99.90
35804;DHT22;21924;51.934;7.414;2024-03-02T13:19:30;15.20;99.90
35804;DHT22;21924;51.934;7.414;2024-03-02T13:22:15;15.40;99.90
35804;DHT22;21924;51.934;7.414;2024-03-02T13:24:59;15.10;99.90
35804;DHT22;21924;51.934;7.414;2024-03-02T13:27:45;14.90;99.90
35804;DHT22;21924;51.934;7.414;2024-03-02T13:30:29;14.80;99.90
35804;DHT22;21924;51.934;7.414;2024-03-02T13:33:13;14.70;99.90
35804;DHT22;21924;51.934;7.414;2024-03-02T13:35:57;14.60;99.90
35804;DHT22;21924;51.934;7.414;2024-03-02T13:38:41;14.60;99.90
35804;DHT22;21924;51.934;7.414;2024-03-02T13:41:25;14.50;99.90
35804;DHT22;21924;51.934;7.414;2024-03-02T13:44:10;14.40;99.90
35804;DHT22;21924;51.934;7.414;2024-03-02T13:46:54;14.50;99.90
35804;DHT22;21924;51.934;7.414;2024-03-02T13:49:38;14.50;99.90
35804;DHT22;21924;51.934;7.414;2024-03-02T13:52:27;14.60;99.90
35804;DHT22;21924;51.934;7.414;2024-03-02T13:55:11;14.80;99.90
35804;DHT22;21924;51.934;7.414;2024-03-02T13:57:55;14.90;99.90
35804;DHT22;21924;51.934;7.414;2024-03-02T14:00:39;15.00;99.90
35804;DHT22;21924;51.934;7.414;2024-03-02T14:03:23;15.00;99.90
35804;DHT22;21924;51.934;7.414;2024-03-02T14:06:07;15.10;99.90
35804;DHT22;21924;51.934;7.414;2024-03-02T14:08:54;15.00;99.90
35804;DHT22;21924;51.934;7.414;2024-03-02T14:11:38;15.10;99.90
35804;DHT22;21924;51.934;7.414;2024-03-02T14:14:23;15.20;99.90
35804;DHT22;21924;51.934;7.414;2024-03-02T14:17:13;15.20;99.90
35804;DHT22;21924;51.934;7.414;2024-03-02T14:20:01;15.00;99.90
35804;DHT22;21924;51.934;7.414;2024-03-02T14:22:45;15.00;99.90
35804;DHT22;21924;51.934;7.414;2024-03-02T14:25:30;14.90;99.90
35804;DHT22;21924;51.934;7.414;2024-03-02T14:28:17;15.10;99.90
35804;DHT22;21924;51.934;7.414;2024-03-02T14:31:04;15.30;99.90
35804;DHT22;21924;51.934;7.414;2024-03-02T14:33:48;15.20;99.90
35804;DHT22;21924;51.934;7.414;2024-03-02T14:36:35;15.20;99.90
35804;DHT22;21924;51.934;7.414;2024-03-02T14:42:27;15.30;99.90
35804;DHT22;21924;51.934;7.414;2024-03-02T14:45:15;15.10;99.90
35804;DHT22;21924;51.934;7.414;2024-03-02T14:48:02;15.00;99.90
35804;DHT22;21924;51.934;7.414;2024-03-02T14:50:46;14.90;99.90
35804;DHT22;21924;51.934;7.414;2024-03-02T14:53:50;14.50;99.90
35804;DHT22;21924;51.934;7.414;2024-03-02T14:56:34;14.50;99.90
35804;DHT22;21924;51.934;7.414;2024-03-02T14:59:44;14.30;99.90
35804;DHT22;21924;51.934;7.414;2024-03-02T15:02:45;14.30;99.90
35804;DHT22;21924;51.934;7.414;2024-03-02T15:09:08;14.50;99.90
35804;DHT22;21924;51.934;7.414;2024-03-02T15:11:53;14.50;99.90
35804;DHT22;21924;51.934;7.414;2024-03-02T15:14:38;14.40;99.90
35804;DHT22;21924;51.934;7.414;2024-03-02T15:25:12;14.10;99.90
35804;DHT22;21924;51.934;7.414;2024-03-02T15:27:54;14.00;99.90
35804;DHT22;21924;51.934;7.414;2024-03-02T15:30:38;13.90;99.90
35804;DHT22;21924;51.934;7.414;2024-03-02T15:33:45;13.80;99.90
35804;DHT22;21924;51.934;7.414;2024-03-02T15:36:29;13.80;99.90
35804;DHT22;21924;51.934;7.414;2024-03-02T15:39:15;13.80;99.90
35804;DHT22;21924;51.934;7.414;2024-03-02T15:42:01;13.70;99.90
35804;DHT22;21924;51.934;7.414;2024-03-02T15:44:45;13.60;99.90
35804;DHT22;21924;51.934;7.414;2024-03-02T15:47:29;13.50;99.90
35804;DHT22;21924;51.934;7.414;2024-03-02T15:50:14;13.40;99.90
35804;DHT22;21924;51.934;7.414;2024-03-02T15:52:59;13.40;99.90
35804;DHT22;21924;51.934;7.414;2024-03-02T15:55:47;13.40;99.90
35804;DHT22;21924;51.934;7.414;2024-03-02T15:58:32;13.30;99.90
35804;DHT22;21924;51.934;7.414;2024-03-02T16:14:55;13.10;99.90
35804;DHT22;21924;51.934;7.414;2024-03-02T16:18:03;13.00;99.90
35804;DHT22;21924;51.934;7.414;2024-03-02T16:20:48;13.00;99.90
35804;DHT22;21924;51.934;7.414;2024-03-02T16:27:11;12.80;99.90
35804;DHT22;21924;51.934;7.414;2024-03-02T16:29:55;12.80;99.90
35804;DHT22;21924;51.934;7.414;2024-03-02T16:32:42;12.80;99.90
35804;DHT22;21924;51.934;7.414;2024-03-02T16:35:26;12.70;99.90
35804;DHT22;21924;51.934;7.414;2024-03-02T16:38:10;12.70;99.90
35804;DHT22;21924;51.934;7.414;2024-03-02T16:40:54;12.70;99.90
35804;DHT22;21924;51.934;7.414;2024-03-02T16:43:40;12.60;99.90
35804;DHT22;21924;51.934;7.414;2024-03-02T16:46:24;12.60;99.90
35804;DHT22;21924;51.934;7.414;2024-03-02T16:49:08;12.50;99.90
35804;DHT22;21924;51.934;7.414;2024-03-02T16:51:53;12.40;99.90
35804;DHT22;21924;51.934;7.414;2024-03-02T16:58:05;12.30;99.90
35804;DHT22;21924;51.934;7.414;2024-03-02T17:00:49;12.30;99.90
35804;DHT22;21924;51.934;7.414;2024-03-02T17:03:33;12.30;99.90
35804;DHT22;21924;51.934;7.414;2024-03-02T17:06:17;12.30;99.90
35804;DHT22;21924;51.934;7.414;2024-03-02T17:09:01;12.20;99.90
35804;DHT22;21924;51.934;7.414;2024-03-02T17:11:48;12.20;99.90
35804;DHT22;21924;51.934;7.414;2024-03-02T17:14:32;12.10;99.90
35804;DHT22;21924;51.934;7.414;2024-03-02T17:17:20;12.10;99.90
35804;DHT22;21924;51.934;7.414;2024-03-02T17:20:04;12.00;99.90
35804;DHT22;21924;51.934;7.414;2024-03-02T17:22:52;12.00;99.90
35804;DHT22;21924;51.934;7.414;2024-03-02T17:25:36;11.90;99.90
35804;DHT22;21924;51.934;7.414;2024-03-02T17:28:25;11.90;99.90
35804;DHT22;21924;51.934;7.414;2024-03-02T17:31:09;11.80;99.90
35804;DHT22;21924;51.934;7.414;2024-03-02T17:33:54;11.70;99.90
35804;DHT22;21924;51.934;7.414;2024-03-02T17:36:39;11.80;99.90
35804;DHT22;21924;51.934;7.414;2024-03-02T17:39:24;11.80;99.90
35804;DHT22;21924;51.934;7.414;2024-03-02T17:42:08;11.70;99.90
35804;DHT22;21924;51.934;7.414;2024-03-02T17:51:39;11.60;99.90
35804;DHT22;21924;51.934;7.414;2024-03-02T17:54:23;11.70;99.90
35804;DHT22;21924;51.934;7.414;2024-03-02T17:57:18;11.60;99.90
35804;DHT22;21924;51.934;7.414;2024-03-02T18:00:21;11.70;99.90
35804;DHT22;21924;51.934;7.414;2024-03-02T18:16:44;11.70;99.90
35804;DHT22;21924;51.934;7.414;2024-03-02T18:19:40;11.60;99.90
35804;DHT22;21924;51.934;7.414;2024-03-02T18:22:32;11.50;99.90
35804;DHT22;21924;51.934;7.414;2024-03-02T18:25:17;11.50;99.90
35804;DHT22;21924;51.934;7.414;2024-03-02T18:28:01;11.60;99.90
35804;DHT22;21924;51.934;7.414;2024-03-02T18:30:45;11.60;99.90
35804;DHT22;21924;51.934;7.414;2024-03-02T18:33:29;11.60;99.90
35804;DHT22;21924;51.934;7.414;2024-03-02T18:36:14;11.60;99.90
35804;DHT22;21924;51.934;7.414;2024-03-02T18:38:58;11.50;99.90
35804;DHT22;21924;51.934;7.414;2024-03-02T18:41:42;11.50;99.90
35804;DHT22;21924;51.934;7.414;2024-03-02T18:44:26;11.50;99.90
35804;DHT22;21924;51.934;7.414;2024-03-02T18:47:17;11.50;99.90
35804;DHT22;21924;51.934;7.414;2024-03-02T18:53:37;11.60;99.90
35804;DHT22;21924;51.934;7.414;2024-03-02T18:56:42;11.60;99.90
35804;DHT22;21924;51.934;7.414;2024-03-02T19:00:01;11.50;99.90
35804;DHT22;21924;51.934;7.414;2024-03-02T19:02:58;11.70;99.90
35804;DHT22;21924;51.934;7.414;2024-03-02T19:05:51;11.70;99.90
35804;DHT22;21924;51.934;7.414;2024-03-02T19:08:35;11.70;99.90
35804;DHT22;21924;51.934;7.414;2024-03-02T19:11:21;11.50;99.90
35804;DHT22;21924;51.934;7.414;2024-03-02T19:14:19;11.60;99.90